sensor_id;sensor_type;location;lat;lon;timestamp;P1;durP1;ratioP1;P2;durP2;ratioP2
58384;SDS011;44185;47.844;8.966;2023-11-22T00:00:38;4.80;;;2.95;;
58384;SDS011;44185;47.844;8.966;2023-11-22T00:03:04;5.45;;;2.50;;
58384;SDS011;44185;47.844;8.966;2023-11-22T00:05:29;4.22;;;2.53;;
58384;SDS011;44185;47.844;8.966;2023-11-22T00:07:54;4.10;;;2.90;;
58384;SDS011;44185;47.844;8.966;2023-11-22T00:10:20;5.53;;;2.90;;
58384;SDS011;44185;47.844;8.966;2023-11-22T00:12:46;4.85;;;2.55;;
58384;SDS011;44185;47.844;8.966;2023-11-22T00:15:11;2.97;;;2.40;;
58384;SDS011;44185;47.844;8.966;2023-11-22T00:17:37;5.80;;;2.90;;
58384;SDS011;44185;47.844;8.966;2023-11-22T00:20:03;5.50;;;3.00;;
58384;SDS011;44185;47.844;8.966;2023-11-22T00:22:28;4.53;;;2.90;;
58384;SDS011;44185;47.844;8.966;2023-11-22T00:24:53;6.13;;;3.10;;
58384;SDS011;44185;47.844;8.966;2023-11-22T00:27:18;6.55;;;2.85;;
58384;SDS011;44185;47.844;8.966;2023-11-22T00:29:45;3.38;;;2.45;;
58384;SDS011;44185;47.844;8.966;2023-11-22T00:32:10;6.55;;;2.95;;
58384;SDS011;44185;47.844;8.966;2023-11-22T00:34:35;4.50;;;2.50;;
58384;SDS011;44185;47.844;8.966;2023-11-22T00:37:01;4.72;;;2.67;;
58384;SDS011;44185;47.844;8.966;2023-11-22T00:39:26;4.70;;;2.70;;
58384;SDS011;44185;47.844;8.966;2023-11-22T00:41:51;5.93;;;2.60;;
58384;SDS011;44185;47.844;8.966;2023-11-22T00:44:16;5.93;;;2.50;;
58384;SDS011;44185;47.844;8.966;2023-11-22T00:46:43;7.78;;;2.88;;
58384;SDS011;44185;47.844;8.966;2023-11-22T00:49:08;5.35;;;2.63;;
58384;SDS011;44185;47.844;8.966;2023-11-22T00:51:33;5.18;;;2.60;;
58384;SDS011;44185;47.844;8.966;2023-11-22T00:53:59;6.32;;;2.75;;
58384;SDS011;44185;47.844;8.966;2023-11-22T00:56:25;7.78;;;2.80;;
58384;SDS011;44185;47.844;8.966;2023-11-22T00:58:50;6.28;;;2.90;;
58384;SDS011;44185;47.844;8.966;2023-11-22T01:01:15;5.45;;;2.63;;
58384;SDS011;44185;47.844;8.966;2023-11-22T01:03:42;5.75;;;2.80;;
58384;SDS011;44185;47.844;8.966;2023-11-22T01:06:08;3.85;;;2.53;;
58384;SDS011;44185;47.844;8.966;2023-11-22T01:08:34;3.10;;;2.35;;
58384;SDS011;44185;47.844;8.966;2023-11-22T01:10:59;4.22;;;2.42;;
58384;SDS011;44185;47.844;8.966;2023-11-22T01:13:24;3.45;;;2.20;;
58384;SDS011;44185;47.844;8.966;2023-11-22T01:15:50;3.45;;;2.13;;
58384;SDS011;44185;47.844;8.966;2023-11-22T01:18:15;3.45;;;2.50;;
58384;SDS011;44185;47.844;8.966;2023-11-22T01:20:41;4.43;;;2.53;;
58384;SDS011;44185;47.844;8.966;2023-11-22T01:23:07;3.58;;;2.25;;
58384;SDS011;44185;47.844;8.966;2023-11-22T01:25:32;3.75;;;2.40;;
58384;SDS011;44185;47.844;8.966;2023-11-22T01:27:57;3.80;;;2.55;;
58384;SDS011;44185;47.844;8.966;2023-11-22T01:30:22;5.50;;;2.50;;
58384;SDS011;44185;47.844;8.966;2023-11-22T01:32:48;4.03;;;2.50;;
58384;SDS011;44185;47.844;8.966;2023-11-22T01:35:13;4.75;;;2.70;;
58384;SDS011;44185;47.844;8.966;2023-11-22T01:37:39;4.78;;;3.00;;
58384;SDS011;44185;47.844;8.966;2023-11-22T01:40:05;5.75;;;2.58;;
58384;SDS011;44185;47.844;8.966;2023-11-22T01:42:31;4.95;;;3.08;;
58384;SDS011;44185;47.844;8.966;2023-11-22T01:44:56;6.20;;;2.70;;
58384;SDS011;44185;47.844;8.966;2023-11-22T01:47:21;6.20;;;2.80;;
58384;SDS011;44185;47.844;8.966;2023-11-22T01:49:46;4.57;;;2.72;;
58384;SDS011;44185;47.844;8.966;2023-11-22T01:52:12;5.15;;;2.53;;
58384;SDS011;44185;47.844;8.966;2023-11-22T01:54:38;5.15;;;2.45;;
58384;SDS011;44185;47.844;8.966;2023-11-22T01:57:04;4.35;;;2.50;;
58384;SDS011;44185;47.844;8.966;2023-11-22T01:59:30;5.40;;;2.75;;
58384;SDS011;44185;47.844;8.966;2023-11-22T02:01:55;5.10;;;2.90;;
58384;SDS011;44185;47.844;8.966;2023-11-22T02:04:20;4.80;;;2.50;;
58384;SDS011;44185;47.844;8.966;2023-11-22T02:06:46;3.92;;;2.50;;
58384;SDS011;44185;47.844;8.966;2023-11-22T02:09:11;3.25;;;2.25;;
58384;SDS011;44185;47.844;8.966;2023-11-22T02:11:37;5.35;;;2.65;;
58384;SDS011;44185;47.844;8.966;2023-11-22T02:14:03;4.40;;;2.50;;
58384;SDS011;44185;47.844;8.966;2023-11-22T02:16:28;5.05;;;2.90;;
58384;SDS011;44185;47.844;8.966;2023-11-22T02:18:53;4.57;;;2.47;;
58384;SDS011;44185;47.844;8.966;2023-11-22T02:21:18;4.40;;;2.60;;
58384;SDS011;44185;47.844;8.966;2023-11-22T02:23:46;7.30;;;2.92;;
58384;SDS011;44185;47.844;8.966;2023-11-22T02:26:11;3.80;;;2.47;;
58384;SDS011;44185;47.844;8.966;2023-11-22T02:28:36;5.30;;;3.05;;
58384;SDS011;44185;47.844;8.966;2023-11-22T02:31:01;6.53;;;2.80;;
58384;SDS011;44185;47.844;8.966;2023-11-22T02:33:26;5.38;;;2.95;;
58384;SDS011;44185;47.844;8.966;2023-11-22T02:35:52;4.50;;;2.53;;
58384;SDS011;44185;47.844;8.966;2023-11-22T02:38:17;4.70;;;2.55;;
58384;SDS011;44185;47.844;8.966;2023-11-22T02:40:44;5.03;;;2.70;;
58384;SDS011;44185;47.844;8.966;2023-11-22T02:43:09;4.32;;;2.70;;
58384;SDS011;44185;47.844;8.966;2023-11-22T02:45:34;4.80;;;2.70;;
58384;SDS011;44185;47.844;8.966;2023-11-22T02:47:59;4.78;;;2.70;;
58384;SDS011;44185;47.844;8.966;2023-11-22T02:50:25;5.65;;;2.92;;
58384;SDS011;44185;47.844;8.966;2023-11-22T02:52:50;4.15;;;2.47;;
58384;SDS011;44185;47.844;8.966;2023-11-22T02:55:15;4.90;;;2.35;;
58384;SDS011;44185;47.844;8.966;2023-11-22T02:57:42;7.20;;;2.85;;
58384;SDS011;44185;47.844;8.966;2023-11-22T03:00:07;5.30;;;2.72;;
58384;SDS011;44185;47.844;8.966;2023-11-22T03:02:33;3.95;;;2.47;;
58384;SDS011;44185;47.844;8.966;2023-11-22T03:04:58;4.20;;;2.80;;
58384;SDS011;44185;47.844;8.966;2023-11-22T03:07:23;4.25;;;2.72;;
58384;SDS011;44185;47.844;8.966;2023-11-22T03:09:48;3.80;;;2.78;;
58384;SDS011;44185;47.844;8.966;2023-11-22T03:12:15;4.80;;;2.80;;
58384;SDS011;44185;47.844;8.966;2023-11-22T03:14:42;6.18;;;2.80;;
58384;SDS011;44185;47.844;8.966;2023-11-22T03:17:07;5.50;;;2.75;;
58384;SDS011;44185;47.844;8.966;2023-11-22T03:19:33;6.05;;;2.45;;
58384;SDS011;44185;47.844;8.966;2023-11-22T03:21:58;4.22;;;2.35;;
58384;SDS011;44185;47.844;8.966;2023-11-22T03:24:23;4.53;;;2.90;;
58384;SDS011;44185;47.844;8.966;2023-11-22T03:26:48;4.05;;;2.60;;
58384;SDS011;44185;47.844;8.966;2023-11-22T03:29:14;6.18;;;3.13;;
58384;SDS011;44185;47.844;8.966;2023-11-22T03:31:40;6.38;;;3.00;;
58384;SDS011;44185;47.844;8.966;2023-11-22T03:34:05;7.65;;;3.10;;
58384;SDS011;44185;47.844;8.966;2023-11-22T03:36:31;5.53;;;2.80;;
58384;SDS011;44185;47.844;8.966;2023-11-22T03:38:56;5.00;;;2.65;;
58384;SDS011;44185;47.844;8.966;2023-11-22T03:41:21;3.72;;;2.50;;
58384;SDS011;44185;47.844;8.966;2023-11-22T03:43:46;6.83;;;2.77;;
58384;SDS011;44185;47.844;8.966;2023-11-22T03:46:11;6.95;;;2.67;;
58384;SDS011;44185;47.844;8.966;2023-11-22T03:48:38;5.38;;;2.70;;
58384;SDS011;44185;47.844;8.966;2023-11-22T03:51:03;5.45;;;2.63;;
58384;SDS011;44185;47.844;8.966;2023-11-22T03:53:29;6.15;;;3.00;;
58384;SDS011;44185;47.844;8.966;2023-11-22T03:55:54;4.32;;;2.50;;
58384;SDS011;44185;47.844;8.966;2023-11-22T03:58:19;8.13;;;3.45;;
58384;SDS011;44185;47.844;8.966;2023-11-22T04:00:44;4.82;;;2.92;;
58384;SDS011;44185;47.844;8.966;2023-11-22T04:03:09;3.08;;;2.38;;
58384;SDS011;44185;47.844;8.966;2023-11-22T04:05:36;6.45;;;3.03;;
58384;SDS011;44185;47.844;8.966;2023-11-22T04:08:01;5.90;;;3.15;;
58384;SDS011;44185;47.844;8.966;2023-11-22T04:10:26;6.05;;;3.28;;
58384;SDS011;44185;47.844;8.966;2023-11-22T04:12:52;6.93;;;3.15;;
58384;SDS011;44185;47.844;8.966;2023-11-22T04:15:17;7.45;;;3.40;;
58384;SDS011;44185;47.844;8.966;2023-11-22T04:17:42;7.40;;;3.55;;
58384;SDS011;44185;47.844;8.966;2023-11-22T04:20:08;7.82;;;3.33;;
58384;SDS011;44185;47.844;8.966;2023-11-22T04:22:35;6.65;;;3.30;;
58384;SDS011;44185;47.844;8.966;2023-11-22T04:25:00;6.28;;;3.38;;
58384;SDS011;44185;47.844;8.966;2023-11-22T04:27:25;6.72;;;3.63;;
58384;SDS011;44185;47.844;8.966;2023-11-22T04:29:50;8.38;;;3.35;;
58384;SDS011;44185;47.844;8.966;2023-11-22T04:32:15;6.28;;;3.17;;
58384;SDS011;44185;47.844;8.966;2023-11-22T04:34:41;8.52;;;3.70;;
58384;SDS011;44185;47.844;8.966;2023-11-22T04:37:06;6.90;;;3.45;;
58384;SDS011;44185;47.844;8.966;2023-11-22T04:39:32;6.55;;;3.55;;
58384;SDS011;44185;47.844;8.966;2023-11-22T04:41:58;6.03;;;3.20;;
58384;SDS011;44185;47.844;8.966;2023-11-22T04:44:23;7.60;;;3.08;;
58384;SDS011;44185;47.844;8.966;2023-11-22T04:46:48;6.88;;;3.72;;
58384;SDS011;44185;47.844;8.966;2023-11-22T04:49:13;5.57;;;3.30;;
58384;SDS011;44185;47.844;8.966;2023-11-22T04:51:38;7.35;;;3.13;;
58384;SDS011;44185;47.844;8.966;2023-11-22T04:54:04;5.18;;;3.10;;
58384;SDS011;44185;47.844;8.966;2023-11-22T04:56:31;5.95;;;3.28;;
58384;SDS011;44185;47.844;8.966;2023-11-22T04:58:56;5.82;;;2.92;;
58384;SDS011;44185;47.844;8.966;2023-11-22T05:01:21;5.75;;;2.72;;
58384;SDS011;44185;47.844;8.966;2023-11-22T05:03:46;4.85;;;2.10;;
58384;SDS011;44185;47.844;8.966;2023-11-22T05:06:12;3.80;;;1.45;;
58384;SDS011;44185;47.844;8.966;2023-11-22T05:08:37;0.60;;;0.60;;
58384;SDS011;44185;47.844;8.966;2023-11-22T05:11:02;0.68;;;0.60;;
58384;SDS011;44185;47.844;8.966;2023-11-22T05:13:29;0.68;;;0.68;;
58384;SDS011;44185;47.844;8.966;2023-11-22T05:15:54;0.43;;;0.43;;
58384;SDS011;44185;47.844;8.966;2023-11-22T05:18:19;0.50;;;0.50;;
58384;SDS011;44185;47.844;8.966;2023-11-22T05:20:44;0.70;;;0.70;;
58384;SDS011;44185;47.844;8.966;2023-11-22T05:23:09;0.52;;;0.52;;
58384;SDS011;44185;47.844;8.966;2023-11-22T05:25:35;0.73;;;0.70;;
58384;SDS011;44185;47.844;8.966;2023-11-22T05:28:00;0.90;;;0.50;;
58384;SDS011;44185;47.844;8.966;2023-11-22T05:30:26;0.77;;;0.77;;
58384;SDS011;44185;47.844;8.966;2023-11-22T05:32:52;0.65;;;0.65;;
58384;SDS011;44185;47.844;8.966;2023-11-22T05:35:17;0.60;;;0.60;;
58384;SDS011;44185;47.844;8.966;2023-11-22T05:37:42;1.25;;;0.85;;
58384;SDS011;44185;47.844;8.966;2023-11-22T05:40:08;1.40;;;0.90;;
58384;SDS011;44185;47.844;8.966;2023-11-22T05:42:33;0.90;;;0.88;;
58384;SDS011;44185;47.844;8.966;2023-11-22T05:44:58;0.63;;;0.60;;
58384;SDS011;44185;47.844;8.966;2023-11-22T05:47:25;0.93;;;0.90;;
58384;SDS011;44185;47.844;8.966;2023-11-22T05:49:50;0.70;;;0.70;;
58384;SDS011;44185;47.844;8.966;2023-11-22T05:52:15;1.58;;;1.30;;
58384;SDS011;44185;47.844;8.966;2023-11-22T05:54:40;2.05;;;1.38;;
58384;SDS011;44185;47.844;8.966;2023-11-22T05:57:06;0.80;;;0.80;;
58384;SDS011;44185;47.844;8.966;2023-11-22T05:59:31;1.05;;;0.93;;
58384;SDS011;44185;47.844;8.966;2023-11-22T06:01:56;1.08;;;0.98;;
58384;SDS011;44185;47.844;8.966;2023-11-22T06:04:23;2.88;;;1.17;;
58384;SDS011;44185;47.844;8.966;2023-11-22T06:06:48;0.73;;;0.73;;
58384;SDS011;44185;47.844;8.966;2023-11-22T06:09:13;1.23;;;0.90;;
58384;SDS011;44185;47.844;8.966;2023-11-22T06:11:38;1.50;;;0.90;;
58384;SDS011;44185;47.844;8.966;2023-11-22T06:14:04;1.73;;;0.73;;
58384;SDS011;44185;47.844;8.966;2023-11-22T06:16:29;1.27;;;0.82;;
58384;SDS011;44185;47.844;8.966;2023-11-22T06:18:54;1.00;;;1.00;;
58384;SDS011;44185;47.844;8.966;2023-11-22T06:21:21;1.08;;;1.00;;
58384;SDS011;44185;47.844;8.966;2023-11-22T06:23:46;1.48;;;1.20;;
58384;SDS011;44185;47.844;8.966;2023-11-22T06:26:11;1.00;;;0.63;;
58384;SDS011;44185;47.844;8.966;2023-11-22T06:28:37;1.10;;;1.00;;
58384;SDS011;44185;47.844;8.966;2023-11-22T06:31:02;1.00;;;0.80;;
58384;SDS011;44185;47.844;8.966;2023-11-22T06:33:27;1.02;;;0.85;;
58384;SDS011;44185;47.844;8.966;2023-11-22T06:35:52;2.45;;;1.15;;
58384;SDS011;44185;47.844;8.966;2023-11-22T06:38:19;1.38;;;1.27;;
58384;SDS011;44185;47.844;8.966;2023-11-22T06:40:44;2.05;;;1.40;;
58384;SDS011;44185;47.844;8.966;2023-11-22T06:43:09;3.28;;;2.08;;
58384;SDS011;44185;47.844;8.966;2023-11-22T06:45:35;1.90;;;1.67;;
58384;SDS011;44185;47.844;8.966;2023-11-22T06:48:00;1.63;;;1.50;;
58384;SDS011;44185;47.844;8.966;2023-11-22T06:50:25;3.10;;;2.33;;
58384;SDS011;44185;47.844;8.966;2023-11-22T06:52:50;15.95;;;9.70;;
58384;SDS011;44185;47.844;8.966;2023-11-22T06:55:17;12.90;;;6.53;;
58384;SDS011;44185;47.844;8.966;2023-11-22T06:57:42;34.72;;;17.05;;
58384;SDS011;44185;47.844;8.966;2023-11-22T07:00:08;2.95;;;1.80;;
58384;SDS011;44185;47.844;8.966;2023-11-22T07:02:33;1.67;;;1.40;;
58384;SDS011;44185;47.844;8.966;2023-11-22T07:04:58;3.40;;;1.38;;
58384;SDS011;44185;47.844;8.966;2023-11-22T07:07:24;1.00;;;1.00;;
58384;SDS011;44185;47.844;8.966;2023-11-22T07:09:49;1.38;;;0.95;;
58384;SDS011;44185;47.844;8.966;2023-11-22T07:12:16;1.10;;;0.50;;
58384;SDS011;44185;47.844;8.966;2023-11-22T07:14:41;1.55;;;1.45;;
58384;SDS011;44185;47.844;8.966;2023-11-22T07:17:06;1.33;;;1.17;;
58384;SDS011;44185;47.844;8.966;2023-11-22T07:19:31;1.52;;;1.42;;
58384;SDS011;44185;47.844;8.966;2023-11-22T07:21:56;1.00;;;0.75;;
58384;SDS011;44185;47.844;8.966;2023-11-22T07:24:22;1.60;;;1.45;;
58384;SDS011;44185;47.844;8.966;2023-11-22T07:26:47;4.18;;;1.10;;
58384;SDS011;44185;47.844;8.966;2023-11-22T07:29:13;0.85;;;0.85;;
58384;SDS011;44185;47.844;8.966;2023-11-22T07:31:39;1.80;;;1.25;;
58384;SDS011;44185;47.844;8.966;2023-11-22T07:34:04;2.53;;;1.70;;
58384;SDS011;44185;47.844;8.966;2023-11-22T07:36:29;1.25;;;1.15;;
58384;SDS011;44185;47.844;8.966;2023-11-22T07:38:54;1.50;;;1.10;;
58384;SDS011;44185;47.844;8.966;2023-11-22T07:41:20;2.65;;;1.33;;
58384;SDS011;44185;47.844;8.966;2023-11-22T07:43:45;1.25;;;1.10;;
58384;SDS011;44185;47.844;8.966;2023-11-22T07:46:11;1.75;;;1.40;;
58384;SDS011;44185;47.844;8.966;2023-11-22T07:48:37;1.02;;;0.95;;
58384;SDS011;44185;47.844;8.966;2023-11-22T07:51:02;1.27;;;1.15;;
58384;SDS011;44185;47.844;8.966;2023-11-22T07:53:27;0.80;;;0.80;;
58384;SDS011;44185;47.844;8.966;2023-11-22T07:55:52;1.25;;;1.05;;
58384;SDS011;44185;47.844;8.966;2023-11-22T07:58:17;1.33;;;0.98;;
58384;SDS011;44185;47.844;8.966;2023-11-22T08:00:43;0.95;;;0.95;;
58384;SDS011;44185;47.844;8.966;2023-11-22T08:03:09;1.33;;;0.85;;
58384;SDS011;44185;47.844;8.966;2023-11-22T08:05:34;1.30;;;0.90;;
58384;SDS011;44185;47.844;8.966;2023-11-22T08:08:00;1.10;;;1.00;;
58384;SDS011;44185;47.844;8.966;2023-11-22T08:10:25;0.77;;;0.77;;
58384;SDS011;44185;47.844;8.966;2023-11-22T08:12:50;1.30;;;0.90;;
58384;SDS011;44185;47.844;8.966;2023-11-22T08:15:15;0.98;;;0.65;;
58384;SDS011;44185;47.844;8.966;2023-11-22T08:17:41;2.00;;;0.77;;
58384;SDS011;44185;47.844;8.966;2023-11-22T08:20:08;1.55;;;0.70;;
58384;SDS011;44185;47.844;8.966;2023-11-22T08:22:33;2.78;;;1.02;;
58384;SDS011;44185;47.844;8.966;2023-11-22T08:24:59;1.52;;;0.77;;
58384;SDS011;44185;47.844;8.966;2023-11-22T08:27:24;1.90;;;1.13;;
58384;SDS011;44185;47.844;8.966;2023-11-22T08:29:49;2.10;;;0.75;;
58384;SDS011;44185;47.844;8.966;2023-11-22T08:32:14;1.75;;;1.45;;
58384;SDS011;44185;47.844;8.966;2023-11-22T08:34:39;2.10;;;1.38;;
58384;SDS011;44185;47.844;8.966;2023-11-22T08:37:06;1.20;;;1.10;;
58384;SDS011;44185;47.844;8.966;2023-11-22T08:39:32;2.92;;;1.27;;
58384;SDS011;44185;47.844;8.966;2023-11-22T08:41:57;2.92;;;1.05;;
58384;SDS011;44185;47.844;8.966;2023-11-22T08:44:22;1.63;;;1.42;;
58384;SDS011;44185;47.844;8.966;2023-11-22T08:46:47;1.08;;;0.86;;
58384;SDS011;44185;47.844;8.966;2023-11-22T08:49:12;1.00;;;0.98;;
58384;SDS011;44185;47.844;8.966;2023-11-22T08:51:38;0.90;;;0.90;;
58384;SDS011;44185;47.844;8.966;2023-11-22T08:54:04;2.78;;;1.17;;
58384;SDS011;44185;47.844;8.966;2023-11-22T08:56:30;1.70;;;1.60;;
58384;SDS011;44185;47.844;8.966;2023-11-22T08:58:55;2.08;;;1.60;;
58384;SDS011;44185;47.844;8.966;2023-11-22T09:01:20;2.33;;;1.23;;
58384;SDS011;44185;47.844;8.966;2023-11-22T09:03:45;2.28;;;1.60;;
58384;SDS011;44185;47.844;8.966;2023-11-22T09:06:10;3.40;;;2.05;;
58384;SDS011;44185;47.844;8.966;2023-11-22T09:08:36;2.03;;;1.50;;
58384;SDS011;44185;47.844;8.966;2023-11-22T09:11:02;2.17;;;1.17;;
58384;SDS011;44185;47.844;8.966;2023-11-22T09:13:28;1.40;;;1.30;;
58384;SDS011;44185;47.844;8.966;2023-11-22T09:15:53;1.67;;;1.13;;
58384;SDS011;44185;47.844;8.966;2023-11-22T09:18:18;0.65;;;0.65;;
58384;SDS011;44185;47.844;8.966;2023-11-22T09:20:43;1.48;;;1.15;;
58384;SDS011;44185;47.844;8.966;2023-11-22T09:23:08;3.35;;;1.65;;
58384;SDS011;44185;47.844;8.966;2023-11-22T09:25:34;1.35;;;1.00;;
58384;SDS011;44185;47.844;8.966;2023-11-22T09:28:01;2.03;;;1.25;;
58384;SDS011;44185;47.844;8.966;2023-11-22T09:30:26;1.63;;;1.20;;
58384;SDS011;44185;47.844;8.966;2023-11-22T09:32:52;1.67;;;1.38;;
58384;SDS011;44185;47.844;8.966;2023-11-22T09:35:17;3.30;;;2.08;;
58384;SDS011;44185;47.844;8.966;2023-11-22T09:37:42;2.10;;;1.23;;
58384;SDS011;44185;47.844;8.966;2023-11-22T09:40:08;1.73;;;1.38;;
58384;SDS011;44185;47.844;8.966;2023-11-22T09:42:33;1.35;;;1.27;;
58384;SDS011;44185;47.844;8.966;2023-11-22T09:45:00;1.33;;;1.20;;
58384;SDS011;44185;47.844;8.966;2023-11-22T09:47:25;1.15;;;1.05;;
58384;SDS011;44185;47.844;8.966;2023-11-22T09:49:50;2.70;;;1.45;;
58384;SDS011;44185;47.844;8.966;2023-11-22T09:52:17;1.33;;;1.15;;
58384;SDS011;44185;47.844;8.966;2023-11-22T09:54:43;1.17;;;1.02;;
58384;SDS011;44185;47.844;8.966;2023-11-22T09:57:09;3.08;;;2.17;;
58384;SDS011;44185;47.844;8.966;2023-11-22T09:59:34;1.58;;;1.48;;
58384;SDS011;44185;47.844;8.966;2023-11-22T10:02:02;2.35;;;1.58;;
58384;SDS011;44185;47.844;8.966;2023-11-22T10:04:27;1.20;;;1.10;;
58384;SDS011;44185;47.844;8.966;2023-11-22T10:06:52;2.33;;;1.67;;
58384;SDS011;44185;47.844;8.966;2023-11-22T10:09:17;0.60;;;0.57;;
58384;SDS011;44185;47.844;8.966;2023-11-22T10:11:43;3.10;;;1.70;;
58384;SDS011;44185;47.844;8.966;2023-11-22T10:14:08;3.70;;;1.50;;
58384;SDS011;44185;47.844;8.966;2023-11-22T10:16:33;0.68;;;0.68;;
58384;SDS011;44185;47.844;8.966;2023-11-22T10:19:00;1.95;;;1.17;;
58384;SDS011;44185;47.844;8.966;2023-11-22T10:21:26;1.00;;;0.90;;
58384;SDS011;44185;47.844;8.966;2023-11-22T10:23:52;2.22;;;1.65;;
58384;SDS011;44185;47.844;8.966;2023-11-22T10:26:18;1.08;;;1.05;;
58384;SDS011;44185;47.844;8.966;2023-11-22T10:28:43;1.25;;;1.15;;
58384;SDS011;44185;47.844;8.966;2023-11-22T10:31:08;1.75;;;1.35;;
58384;SDS011;44185;47.844;8.966;2023-11-22T10:33:36;1.35;;;1.08;;
58384;SDS011;44185;47.844;8.966;2023-11-22T10:36:05;1.10;;;1.03;;
58384;SDS011;44185;47.844;8.966;2023-11-22T10:38:31;0.82;;;0.82;;
58384;SDS011;44185;47.844;8.966;2023-11-22T10:40:58;3.50;;;1.60;;
58384;SDS011;44185;47.844;8.966;2023-11-22T10:43:23;2.53;;;1.63;;
58384;SDS011;44185;47.844;8.966;2023-11-22T10:45:49;3.22;;;1.45;;
58384;SDS011;44185;47.844;8.966;2023-11-22T10:48:15;1.75;;;1.50;;
58384;SDS011;44185;47.844;8.966;2023-11-22T10:50:40;2.38;;;1.55;;
58384;SDS011;44185;47.844;8.966;2023-11-22T10:53:07;1.40;;;1.10;;
58384;SDS011;44185;47.844;8.966;2023-11-22T10:55:36;3.50;;;1.60;;
58384;SDS011;44185;47.844;8.966;2023-11-22T10:58:03;1.42;;;0.93;;
58384;SDS011;44185;47.844;8.966;2023-11-22T11:00:29;1.27;;;1.17;;
58384;SDS011;44185;47.844;8.966;2023-11-22T11:02:58;2.83;;;1.50;;
58384;SDS011;44185;47.844;8.966;2023-11-22T11:05:25;3.70;;;1.67;;
58384;SDS011;44185;47.844;8.966;2023-11-22T11:07:53;3.25;;;1.83;;
58384;SDS011;44185;47.844;8.966;2023-11-22T11:10:21;1.48;;;1.38;;
58384;SDS011;44185;47.844;8.966;2023-11-22T11:12:46;2.25;;;1.63;;
58384;SDS011;44185;47.844;8.966;2023-11-22T11:15:12;3.20;;;1.55;;
58384;SDS011;44185;47.844;8.966;2023-11-22T11:17:37;1.20;;;1.10;;
58384;SDS011;44185;47.844;8.966;2023-11-22T11:20:03;3.72;;;1.38;;
58384;SDS011;44185;47.844;8.966;2023-11-22T11:22:29;2.47;;;1.80;;
58384;SDS011;44185;47.844;8.966;2023-11-22T11:24:59;1.77;;;1.40;;
58384;SDS011;44185;47.844;8.966;2023-11-22T11:27:26;3.83;;;1.83;;
58384;SDS011;44185;47.844;8.966;2023-11-22T11:29:52;2.65;;;1.83;;
58384;SDS011;44185;47.844;8.966;2023-11-22T11:32:29;2.00;;;1.35;;
58384;SDS011;44185;47.844;8.966;2023-11-22T11:34:55;1.88;;;1.58;;
58384;SDS011;44185;47.844;8.966;2023-11-22T11:37:20;3.95;;;1.48;;
58384;SDS011;44185;47.844;8.966;2023-11-22T11:39:46;2.08;;;1.38;;
58384;SDS011;44185;47.844;8.966;2023-11-22T11:42:11;1.65;;;0.90;;
58384;SDS011;44185;47.844;8.966;2023-11-22T11:44:39;1.23;;;1.05;;
58384;SDS011;44185;47.844;8.966;2023-11-22T11:47:15;2.45;;;1.58;;
58384;SDS011;44185;47.844;8.966;2023-11-22T11:49:40;2.30;;;1.55;;
58384;SDS011;44185;47.844;8.966;2023-11-22T11:52:06;1.80;;;1.70;;
58384;SDS011;44185;47.844;8.966;2023-11-22T11:54:31;2.08;;;1.17;;
58384;SDS011;44185;47.844;8.966;2023-11-22T11:56:58;2.05;;;1.67;;
58384;SDS011;44185;47.844;8.966;2023-11-22T11:59:23;2.28;;;1.67;;
58384;SDS011;44185;47.844;8.966;2023-11-22T12:01:53;2.47;;;1.23;;
58384;SDS011;44185;47.844;8.966;2023-11-22T12:04:18;3.33;;;1.63;;
58384;SDS011;44185;47.844;8.966;2023-11-22T12:06:43;3.60;;;1.42;;
58384;SDS011;44185;47.844;8.966;2023-11-22T12:09:09;3.08;;;2.20;;
58384;SDS011;44185;47.844;8.966;2023-11-22T12:11:34;2.55;;;1.88;;
58384;SDS011;44185;47.844;8.966;2023-11-22T12:13:59;2.92;;;1.55;;
58384;SDS011;44185;47.844;8.966;2023-11-22T12:16:24;4.78;;;2.45;;
58384;SDS011;44185;47.844;8.966;2023-11-22T12:18:51;2.40;;;1.98;;
58384;SDS011;44185;47.844;8.966;2023-11-22T12:21:16;4.00;;;2.30;;
58384;SDS011;44185;47.844;8.966;2023-11-22T12:23:42;2.15;;;1.70;;
58384;SDS011;44185;47.844;8.966;2023-11-22T12:26:09;2.30;;;1.85;;
58384;SDS011;44185;47.844;8.966;2023-11-22T12:28:35;4.38;;;2.13;;
58384;SDS011;44185;47.844;8.966;2023-11-22T12:31:06;4.43;;;2.42;;
58384;SDS011;44185;47.844;8.966;2023-11-22T12:33:31;3.00;;;1.85;;
58384;SDS011;44185;47.844;8.966;2023-11-22T12:35:58;6.15;;;2.97;;
58384;SDS011;44185;47.844;8.966;2023-11-22T12:38:23;3.20;;;1.92;;
58384;SDS011;44185;47.844;8.966;2023-11-22T12:40:49;3.17;;;2.05;;
58384;SDS011;44185;47.844;8.966;2023-11-22T12:43:14;2.80;;;1.95;;
58384;SDS011;44185;47.844;8.966;2023-11-22T12:45:39;4.80;;;2.47;;
58384;SDS011;44185;47.844;8.966;2023-11-22T12:48:19;5.43;;;2.10;;
58384;SDS011;44185;47.844;8.966;2023-11-22T12:50:44;3.78;;;1.85;;
58384;SDS011;44185;47.844;8.966;2023-11-22T12:53:11;4.05;;;2.53;;
58384;SDS011;44185;47.844;8.966;2023-11-22T12:55:37;2.35;;;2.10;;
58384;SDS011;44185;47.844;8.966;2023-11-22T12:58:02;3.08;;;1.95;;
58384;SDS011;44185;47.844;8.966;2023-11-22T13:00:28;4.68;;;2.35;;
58384;SDS011;44185;47.844;8.966;2023-11-22T13:02:53;5.95;;;2.97;;
58384;SDS011;44185;47.844;8.966;2023-11-22T13:05:18;4.85;;;2.70;;
58384;SDS011;44185;47.844;8.966;2023-11-22T13:07:43;3.83;;;2.10;;
58384;SDS011;44185;47.844;8.966;2023-11-22T13:10:10;6.95;;;2.83;;
58384;SDS011;44185;47.844;8.966;2023-11-22T13:12:35;6.45;;;3.22;;
58384;SDS011;44185;47.844;8.966;2023-11-22T13:15:00;4.53;;;2.17;;
58384;SDS011;44185;47.844;8.966;2023-11-22T13:17:25;5.45;;;2.75;;
58384;SDS011;44185;47.844;8.966;2023-11-22T13:19:51;7.07;;;3.67;;
58384;SDS011;44185;47.844;8.966;2023-11-22T13:22:16;7.53;;;3.70;;
58384;SDS011;44185;47.844;8.966;2023-11-22T13:24:41;3.92;;;2.47;;
58384;SDS011;44185;47.844;8.966;2023-11-22T13:27:10;7.22;;;3.22;;
58384;SDS011;44185;47.844;8.966;2023-11-22T13:29:35;8.02;;;3.80;;
58384;SDS011;44185;47.844;8.966;2023-11-22T13:32:00;6.93;;;4.07;;
58384;SDS011;44185;47.844;8.966;2023-11-22T13:34:25;6.53;;;2.80;;
58384;SDS011;44185;47.844;8.966;2023-11-22T13:36:51;8.20;;;3.83;;
58384;SDS011;44185;47.844;8.966;2023-11-22T13:39:16;6.18;;;3.28;;
58384;SDS011;44185;47.844;8.966;2023-11-22T13:41:41;6.18;;;3.53;;
58384;SDS011;44185;47.844;8.966;2023-11-22T13:44:08;8.02;;;4.07;;
58384;SDS011;44185;47.844;8.966;2023-11-22T13:46:33;8.43;;;3.78;;
58384;SDS011;44185;47.844;8.966;2023-11-22T13:48:58;8.75;;;4.05;;
58384;SDS011;44185;47.844;8.966;2023-11-22T13:51:23;7.30;;;3.47;;
58384;SDS011;44185;47.844;8.966;2023-11-22T13:53:48;7.90;;;3.83;;
58384;SDS011;44185;47.844;8.966;2023-11-22T13:56:13;8.38;;;3.78;;
58384;SDS011;44185;47.844;8.966;2023-11-22T13:58:39;8.73;;;4.20;;
58384;SDS011;44185;47.844;8.966;2023-11-22T14:01:05;9.65;;;4.47;;
58384;SDS011;44185;47.844;8.966;2023-11-22T14:03:31;4.85;;;3.30;;
58384;SDS011;44185;47.844;8.966;2023-11-22T14:05:56;6.45;;;3.35;;
58384;SDS011;44185;47.844;8.966;2023-11-22T14:08:21;8.07;;;3.97;;
58384;SDS011;44185;47.844;8.966;2023-11-22T14:10:46;7.15;;;3.40;;
58384;SDS011;44185;47.844;8.966;2023-11-22T14:13:11;10.05;;;4.57;;
58384;SDS011;44185;47.844;8.966;2023-11-22T14:15:37;7.38;;;3.45;;
58384;SDS011;44185;47.844;8.966;2023-11-22T14:18:03;9.15;;;3.45;;
58384;SDS011;44185;47.844;8.966;2023-11-22T14:20:28;9.98;;;4.50;;
58384;SDS011;44185;47.844;8.966;2023-11-22T14:22:54;8.48;;;3.95;;
58384;SDS011;44185;47.844;8.966;2023-11-22T14:25:19;7.20;;;3.38;;
58384;SDS011;44185;47.844;8.966;2023-11-22T14:27:45;5.03;;;3.30;;
58384;SDS011;44185;47.844;8.966;2023-11-22T14:30:11;6.40;;;3.20;;
58384;SDS011;44185;47.844;8.966;2023-11-22T14:32:36;8.20;;;3.58;;
58384;SDS011;44185;47.844;8.966;2023-11-22T14:35:03;7.35;;;3.53;;
58384;SDS011;44185;47.844;8.966;2023-11-22T14:37:29;7.90;;;4.35;;